Time;durP1;ratioP1;P1;durP2;ratioP2;P2;SDS_P1;SDS_P2;PMS_P1;PMS_P2;Temp;Humidity;BMP_temperature;BMP_pressure;BME280_temperature;BME280_humidity;BME280_pressure;Samples;Min_cycle;Max_cycle;Signal;HPM_P1;HPM_P2
2021/07/01 00:01:14;;;;;;;;;12.20;12.20;;;;;25.30;76.21;100926.50;4956784;28;8875;-81
2021/07/01 00:04:11;;;;;;;;;10.00;10.00;;;;;25.12;76.99;100924.75;4952326;29;8842;-81
2021/07/01 00:07:06;;;;;;;;;11.00;11.00;;;;;25.45;75.27;100920.19;4925567;29;8954;-81
2021/07/01 00:10:08;;;;;;;;;11.80;11.80;;;;;25.45;75.72;100919.41;4937349;29;8874;-81
2021/07/01 00:13:04;;;;;;;;;11.60;11.40;;;;;25.32;75.73;100918.41;4938159;29;8887;-81
2021/07/01 00:16:00;;;;;;;;;9.60;9.60;;;;;25.02;77.06;100920.00;4937518;29;8830;-82
2021/07/01 00:18:55;;;;;;;;;14.00;14.00;;;;;25.01;76.60;100924.06;4924778;29;8850;-82
2021/07/01 00:21:52;;;;;;;;;11.60;11.60;;;;;25.24;76.58;100923.38;4937473;29;8865;-82
2021/07/01 00:24:47;;;;;;;;;14.60;14.60;;;;;25.23;75.88;100930.25;4925378;29;8860;-82
2021/07/01 00:27:45;;;;;;;;;12.80;12.80;;;;;24.74;77.67;100931.66;4925257;29;8850;-81
2021/07/01 00:30:40;;;;;;;;;13.40;13.40;;;;;24.47;79.91;100938.03;4935430;28;8844;-82
2021/07/01 00:33:36;;;;;;;;;14.00;14.00;;;;;24.84;79.35;100937.19;4943895;28;8837;-82
2021/07/01 00:36:32;;;;;;;;;15.60;15.60;;;;;24.65;79.53;100932.19;4955822;28;8955;-82
2021/07/01 00:39:27;;;;;;;;;16.00;16.00;;;;;24.84;78.47;100933.56;4943369;28;8860;-81
2021/07/01 00:42:23;;;;;;;;;12.40;12.40;;;;;24.72;79.72;100945.44;4934933;29;9735;-81
2021/07/01 00:45:18;;;;;;;;;12.00;12.00;;;;;24.95;78.62;100949.19;4937100;28;8854;-81
2021/07/01 00:48:14;;;;;;;;;9.80;9.80;;;;;25.06;78.10;100946.22;4943926;28;9645;-81
2021/07/01 00:51:10;;;;;;;;;12.00;12.00;;;;;25.02;77.62;100945.47;4942813;28;8886;-81
2021/07/01 00:54:06;;;;;;;;;13.60;13.40;;;;;25.03;77.94;100943.44;4955906;28;8934;-81
2021/07/01 00:57:02;;;;;;;;;13.40;13.40;;;;;24.79;78.85;100928.38;4956480;28;8995;-80
2021/07/01 00:59:57;;;;;;;;;11.00;11.00;;;;;24.68;79.17;100940.59;4956034;28;8851;-81
2021/07/01 01:02:53;;;;;;;;;9.00;8.40;;;;;25.06;77.94;100934.91;4955902;28;8965;-81
2021/07/01 01:05:49;;;;;;;;;10.80;10.80;;;;;24.94;77.92;100938.28;4943007;28;8859;-81
2021/07/01 01:08:44;;;;;;;;;12.00;12.00;;;;;24.91;77.81;100950.44;4956371;28;9054;-81
2021/07/01 01:11:40;;;;;;;;;9.40;9.40;;;;;25.15;77.70;100949.38;4937706;28;8893;-80
2021/07/01 01:14:35;;;;;;;;;12.20;12.20;;;;;24.87;77.21;100949.69;4917122;29;8844;-81
2021/07/01 01:17:32;;;;;;;;;10.60;10.60;;;;;24.70;78.89;100950.72;4904621;29;8904;-80
2021/07/01 01:20:28;;;;;;;;;12.00;12.00;;;;;24.83;78.48;100946.91;4908144;29;8846;-80
2021/07/01 01:23:25;;;;;;;;;13.20;13.20;;;;;24.99;77.74;100945.50;4923475;29;8909;-81
2021/07/01 01:26:21;;;;;;;;;16.20;14.80;;;;;24.82;78.43;100945.31;4923787;29;8882;-81
2021/07/01 01:29:20;;;;;;;;;13.40;13.40;;;;;24.80;78.78;100938.47;4936800;29;8885;-81
2021/07/01 01:32:25;;;;;;;;;16.40;16.00;;;;;24.90;78.45;100946.81;4917076;29;8955;-81
2021/07/01 01:35:20;;;;;;;;;13.00;13.00;;;;;24.92;78.47;100940.72;4916734;29;8945;-81
2021/07/01 01:38:17;;;;;;;;;16.40;16.40;;;;;24.65;78.56;100941.47;4904464;29;8853;-81
2021/07/01 01:41:13;;;;;;;;;18.40;18.40;;;;;24.64;79.42;100947.53;4905618;28;8847;-80
2021/07/01 01:44:08;;;;;;;;;15.20;15.20;;;;;24.94;78.32;100944.75;4954673;28;8836;-81
2021/07/01 01:47:17;;;;;;;;;20.80;20.80;;;;;24.79;78.15;100940.50;4939770;28;8904;-81
2021/07/01 01:50:19;;;;;;;;;21.40;21.40;;;;;24.78;78.71;100949.41;4954933;28;8848;-81
2021/07/01 01:53:14;;;;;;;;;13.20;13.20;;;;;25.08;77.75;100954.31;4955126;28;8863;-81
2021/07/01 01:56:10;;;;;;;;;11.00;11.00;;;;;25.35;76.14;100943.03;4954811;28;8959;-82
2021/07/01 01:59:07;;;;;;;;;14.40;14.20;;;;;25.07;76.66;100947.84;4948829;28;8844;-81
2021/07/01 02:02:04;;;;;;;;;15.40;15.40;;;;;24.66;78.05;100947.91;4954376;28;8851;-81
2021/07/01 02:04:59;;;;;;;;;11.40;11.40;;;;;24.91;77.46;100948.41;4954449;28;8860;-81
2021/07/01 02:07:56;;;;;;;;;13.60;13.60;;;;;24.70;78.80;100957.19;4941577;28;8894;-81
2021/07/01 02:10:51;;;;;;;;;13.60;13.60;;;;;23.87;80.87;100950.69;4945184;29;8854;-81
2021/07/01 02:13:47;;;;;;;;;14.80;14.80;;;;;24.21;80.13;100949.97;4935666;29;9643;-82
2021/07/01 02:16:42;;;;;;;;;13.20;13.20;;;;;24.49;79.15;100946.91;4922999;29;8862;-82
2021/07/01 02:19:38;;;;;;;;;12.00;12.00;;;;;24.34;79.32;100948.28;4935979;29;8855;-80
2021/07/01 02:22:34;;;;;;;;;11.80;11.80;;;;;24.24;78.91;100947.13;4912126;28;8855;-82
2021/07/01 02:25:31;;;;;;;;;13.00;13.00;;;;;24.54;79.13;100952.09;4942291;28;8868;-81
2021/07/01 02:28:27;;;;;;;;;12.40;12.40;;;;;24.10;78.95;100950.88;4946354;28;9683;-81
2021/07/01 02:31:22;;;;;;;;;14.80;14.60;;;;;24.02;79.36;100942.91;4950064;28;8849;-83
2021/07/01 02:34:20;;;;;;;;;11.60;11.60;;;;;24.42;78.53;100935.66;4943442;29;8847;-81
2021/07/01 02:37:17;;;;;;;;;11.60;11.60;;;;;24.42;78.17;100940.53;4937107;29;8865;-83
2021/07/01 02:40:15;;;;;;;;;11.00;11.00;;;;;24.74;78.68;100932.47;4922935;29;8947;-80
2021/07/01 02:43:10;;;;;;;;;13.40;13.40;;;;;24.58;76.79;100938.72;4943258;29;8857;-81
2021/07/01 02:46:06;;;;;;;;;13.40;13.40;;;;;24.61;77.68;100942.72;4940164;29;8850;-81
2021/07/01 02:49:02;;;;;;;;;12.60;12.60;;;;;24.29;78.96;100938.19;4931769;29;8842;-80
2021/07/01 02:51:57;;;;;;;;;15.00;15.00;;;;;24.75;77.82;100942.56;4929156;29;8866;-80
2021/07/01 02:54:53;;;;;;;;;14.40;14.40;;;;;24.53;77.62;100942.00;4941986;29;8863;-81
2021/07/01 02:57:49;;;;;;;;;13.80;13.60;;;;;24.63;77.70;100946.75;4927691;29;8857;-81
2021/07/01 03:00:44;;;;;;;;;12.80;12.80;;;;;24.38;78.46;100941.38;4926869;29;8870;-81
2021/07/01 03:03:40;;;;;;;;;14.60;14.60;;;;;24.09;80.11;100932.34;4939750;29;8846;-81
2021/07/01 03:06:36;;;;;;;;;14.20;14.20;;;;;24.26;79.24;100930.56;4937183;29;8843;-84
2021/07/01 03:09:32;;;;;;;;;14.60;14.60;;;;;24.21;79.68;100938.66;4938500;29;8850;-84
2021/07/01 03:12:28;;;;;;;;;15.80;15.00;;;;;24.56;78.95;100932.69;4938221;29;8851;-83
2021/07/01 03:15:23;;;;;;;;;13.40;13.40;;;;;24.59;79.16;100937.50;4928433;29;8855;-83
2021/07/01 03:18:19;;;;;;;;;16.40;16.40;;;;;23.88;81.02;100949.47;4934816;29;8847;-83
2021/07/01 03:21:15;;;;;;;;;13.60;13.60;;;;;24.35;80.04;100961.19;4922501;29;9746;-84
2021/07/01 03:24:11;;;;;;;;;15.60;15.60;;;;;24.71;78.79;100944.63;4935054;29;8885;-82
2021/07/01 03:27:07;;;;;;;;;15.80;15.80;;;;;24.60;78.33;100961.72;4934847;29;8850;-83
2021/07/01 03:30:06;;;;;;;;;16.00;16.00;;;;;24.68;78.47;100956.78;4923059;29;8842;-84
2021/07/01 03:33:03;;;;;;;;;15.20;15.20;;;;;24.54;78.83;100965.44;4904369;29;8848;-82
2021/07/01 03:35:59;;;;;;;;;14.60;14.60;;;;;24.91;77.92;100967.41;4907764;28;8829;-84
2021/07/01 03:38:55;;;;;;;;;16.80;16.80;;;;;24.24;80.62;100966.13;4937088;29;8847;-83
2021/07/01 03:41:52;;;;;;;;;16.60;16.60;;;;;24.50;80.26;100970.31;4924166;29;8842;-82
2021/07/01 03:44:52;;;;;;;;;12.40;12.40;;;;;24.64;79.23;100978.66;4921526;28;8870;-82
2021/07/01 03:47:47;;;;;;;;;18.00;18.00;;;;;24.66;78.60;100968.50;4919752;29;9702;-82
2021/07/01 03:50:44;;;;;;;;;17.20;17.20;;;;;24.28;80.00;100990.28;4935752;28;8831;-83
2021/07/01 03:53:40;;;;;;;;;19.20;19.20;;;;;24.27;79.61;100993.53;4956105;29;8862;-81
2021/07/01 03:56:41;;;;;;;;;17.00;17.00;;;;;24.02;81.87;100994.53;4934165;29;8846;-83
2021/07/01 03:59:37;;;;;;;;;17.20;17.20;;;;;24.37;80.95;101001.13;4937942;29;8837;-82
2021/07/01 04:02:33;;;;;;;;;19.80;19.80;;;;;24.72;79.08;101008.47;4946626;29;8856;-83
2021/07/01 04:05:29;;;;;;;;;20.40;20.40;;;;;24.32;80.65;100996.75;4941073;28;8851;-83
2021/07/01 04:08:24;;;;;;;;;21.60;20.20;;;;;24.60;80.19;100992.81;4926455;29;9685;-82
2021/07/01 04:11:20;;;;;;;;;21.00;21.00;;;;;24.70;79.07;100995.97;4929601;28;8852;-82
2021/07/01 04:14:18;;;;;;;;;22.80;22.80;;;;;24.74;79.45;100993.88;4941378;29;8839;-83
2021/07/01 04:17:13;;;;;;;;;22.60;22.60;;;;;24.98;77.99;100992.78;4925136;29;8858;-84
2021/07/01 04:19:42;;;;;;;;;29.00;28.80;;;;;25.05;77.87;100992.75;4938294;29;8943;-84
2021/07/01 04:22:37;;;;;;;;;23.40;23.40;;;;;25.03;78.12;100992.38;4937442;29;8850;-83
2021/07/01 04:25:33;;;;;;;;;20.60;20.60;;;;;24.89;79.27;100976.34;4955804;28;8857;-84
2021/07/01 04:28:29;;;;;;;;;28.40;27.40;;;;;25.19;78.21;100981.25;4956106;28;8842;-84
2021/07/01 04:31:25;;;;;;;;;24.00;24.00;;;;;25.29;77.75;100975.84;4922381;28;8851;-84
2021/07/01 04:34:21;;;;;;;;;22.40;22.40;;;;;24.92;78.98;100978.34;4957357;28;8851;-82
2021/07/01 04:37:17;;;;;;;;;25.60;25.60;;;;;24.78;80.25;100963.56;4953078;28;8889;-84
2021/07/01 04:40:13;;;;;;;;;24.00;24.00;;;;;25.15;79.12;100959.88;4944924;28;8949;-84
2021/07/01 04:43:09;;;;;;;;;24.80;24.80;;;;;25.08;79.18;100962.81;4924481;29;8839;-85
2021/07/01 04:46:04;;;;;;;;;25.80;24.00;;;;;24.84;81.23;100959.00;4906386;29;8860;-86
2021/07/01 04:49:00;;;;;;;;;23.40;23.40;;;;;25.27;79.47;100950.00;4920003;28;8879;-86
2021/07/01 04:51:56;;;;;;;;;24.80;24.40;;;;;25.41;78.53;100950.63;4958002;28;8845;-84
2021/07/01 04:54:51;;;;;;;;;20.60;20.60;;;;;25.60;77.60;100943.44;4943381;28;9023;-86
2021/07/01 04:57:47;;;;;;;;;23.60;23.40;;;;;25.82;77.07;100934.63;4956544;28;8860;-85
2021/07/01 05:00:45;;;;;;;;;26.20;24.20;;;;;25.77;76.68;100942.41;4919784;29;8884;-86
2021/07/01 05:03:41;;;;;;;;;25.00;25.00;;;;;25.83;76.61;100947.56;4927007;29;8860;-85
2021/07/01 05:06:39;;;;;;;;;25.40;25.40;;;;;25.78;77.28;100955.34;4923980;29;8879;-85
2021/07/01 05:09:34;;;;;;;;;19.60;19.60;;;;;26.09;75.54;100941.06;4919041;29;8848;-85
2021/07/01 05:12:30;;;;;;;;;20.40;20.40;;;;;26.02;76.49;100939.16;4939678;28;8934;-85
2021/07/01 05:15:25;;;;;;;;;25.40;25.40;;;;;26.14;76.65;100936.91;4951764;28;8836;-84
2021/07/01 05:18:21;;;;;;;;;27.00;27.00;;;;;26.17;75.39;100939.69;4958863;28;8848;-86
2021/07/01 05:21:24;;;;;;;;;22.00;22.00;;;;;26.45;75.22;100940.41;4933553;29;9633;-85
2021/07/01 05:24:19;;;;;;;;;19.60;19.60;;;;;26.52;74.30;100943.13;4938015;29;8878;-84
2021/07/01 05:27:15;;;;;;;;;25.20;25.20;;;;;26.58;74.07;100947.06;4920599;29;8845;-85
2021/07/01 05:30:11;;;;;;;;;22.40;22.40;;;;;26.80;73.48;100953.13;4924388;29;8949;-85
2021/07/01 05:33:07;;;;;;;;;24.80;24.80;;;;;26.05;74.90;100946.78;4913698;29;8862;-85
2021/07/01 05:36:03;;;;;;;;;10.80;10.60;;;;;26.30;74.68;100937.84;4929498;29;8864;-80
2021/07/01 05:38:59;;;;;;;;;25.80;25.80;;;;;26.20;75.41;100941.66;4907327;29;9627;-84
2021/07/01 05:41:55;;;;;;;;;23.00;22.40;;;;;26.40;74.57;100946.63;4933934;29;8831;-82
2021/07/01 05:44:50;;;;;;;;;24.20;24.20;;;;;26.65;73.52;100935.59;4907345;29;9067;-85
2021/07/01 05:47:46;;;;;;;;;22.60;22.60;;;;;26.71;72.98;100935.88;4916932;29;8971;-86
2021/07/01 05:50:46;;;;;;;;;18.80;18.80;;;;;26.86;72.69;100932.31;4917226;29;9670;-85
2021/07/01 05:56:52;;;;;;;;;24.40;24.40;;;;;26.86;72.59;100926.63;4949561;28;9003;-87
2021/07/01 05:59:48;;;;;;;;;21.40;21.40;;;;;27.00;73.38;100931.22;4956045;28;8840;-83
2021/07/01 06:02:49;;;;;;;;;20.80;20.80;;;;;27.21;71.87;100929.94;4942648;28;8863;-81
2021/07/01 06:05:50;;;;;;;;;22.80;22.80;;;;;27.19;72.29;100934.47;4954996;28;8922;-82
2021/07/01 06:08:49;;;;;;;;;16.60;16.60;;;;;26.86;74.38;100931.50;4954769;28;8845;-81
2021/07/01 06:11:49;;;;;;;;;21.20;21.20;;;;;27.14;72.60;100930.94;4957384;28;8864;-80
2021/07/01 06:14:45;;;;;;;;;20.00;20.00;;;;;27.43;70.83;100927.44;4942878;28;8904;-81
2021/07/01 06:17:43;;;;;;;;;23.60;23.60;;;;;27.48;70.42;100928.97;4956142;28;8883;-83
2021/07/01 06:20:38;;;;;;;;;20.80;20.40;;;;;27.63;69.70;100933.84;4943131;28;8846;-81
2021/07/01 06:23:38;;;;;;;;;17.60;17.60;;;;;27.74;70.14;100924.28;4956172;28;8848;-82
2021/07/01 06:26:35;;;;;;;;;19.80;19.80;;;;;27.98;69.31;100920.81;4955694;28;8844;-82
2021/07/01 06:29:31;;;;;;;;;15.60;15.60;;;;;27.40;70.55;100926.28;4954395;28;8852;-82
2021/07/01 06:32:26;;;;;;;;;17.20;17.20;;;;;27.64;69.67;100921.25;4956117;28;8907;-81
2021/07/01 06:35:24;;;;;;;;;19.60;19.60;;;;;27.70;69.33;100932.91;4955431;28;8844;-79
2021/07/01 06:38:23;;;;;;;;;21.00;21.00;;;;;28.14;68.68;100939.91;4955192;28;8868;-81
2021/07/01 06:41:20;;;;;;;;;21.60;21.60;;;;;28.21;68.01;100930.38;4954136;28;8858;-83
2021/07/01 06:44:16;;;;;;;;;23.60;23.60;;;;;28.49;67.76;100937.38;4955061;29;8824;-83
2021/07/01 06:47:14;;;;;;;;;20.60;20.60;;;;;28.48;67.64;100933.72;4941228;29;9609;-83
2021/07/01 06:50:11;;;;;;;;;18.40;18.40;;;;;28.48;68.03;100936.56;4954026;28;8888;-83
2021/07/01 06:53:07;;;;;;;;;18.20;18.20;;;;;28.60;67.13;100937.06;4955153;29;8840;-82
2021/07/01 06:56:03;;;;;;;;;19.20;19.20;;;;;28.93;66.22;100938.59;4953979;29;9666;-82
2021/07/01 06:58:59;;;;;;;;;24.00;24.00;;;;;29.07;66.06;100934.50;4954435;28;8840;-82
2021/07/01 07:01:55;;;;;;;;;18.00;18.00;;;;;28.98;65.90;100929.47;4955115;29;8837;-81
2021/07/01 07:04:51;;;;;;;;;18.80;18.80;;;;;28.78;64.79;100937.38;4954652;29;8837;-78
2021/07/01 07:07:49;;;;;;;;;17.60;16.00;;;;;29.01;64.65;100942.00;4954700;28;8836;-83
2021/07/01 07:10:45;;;;;;;;;15.80;15.80;;;;;28.85;64.17;100940.00;4958665;28;8837;-82
2021/07/01 07:13:41;;;;;;;;;16.40;16.40;;;;;28.45;64.05;100946.03;4944843;28;8840;-74
2021/07/01 07:16:40;;;;;;;;;19.20;19.20;;;;;28.79;63.80;100939.75;4944764;28;8879;-76
2021/07/01 07:19:42;;;;;;;;;20.40;20.00;;;;;28.92;62.78;100947.56;4946226;28;8868;-81
2021/07/01 07:22:40;;;;;;;;;17.20;17.20;;;;;28.86;62.12;100950.16;4959361;28;8867;-78
2021/07/01 07:25:39;;;;;;;;;19.60;18.80;;;;;29.01;62.47;100950.56;4958421;28;8832;-79
2021/07/01 07:28:38;;;;;;;;;17.20;17.20;;;;;29.35;61.78;100950.72;4941838;28;8845;-82
2021/07/01 07:31:39;;;;;;;;;19.60;19.60;;;;;29.55;60.87;100944.03;4945817;28;8836;-81
2021/07/01 07:34:35;;;;;;;;;17.40;17.40;;;;;29.62;59.33;100941.75;4946358;28;8828;-81
2021/07/01 07:37:31;;;;;;;;;16.60;16.60;;;;;29.74;58.35;100930.78;4946570;28;8860;-81
2021/07/01 07:40:27;;;;;;;;;19.40;19.40;;;;;29.59;57.38;100939.78;4945330;28;9056;-79
2021/07/01 07:43:25;;;;;;;;;19.20;19.20;;;;;29.75;58.41;100941.75;4946018;28;8878;-80
2021/07/01 07:46:23;;;;;;;;;17.80;17.80;;;;;29.52;59.04;100928.66;4957381;28;8840;-81
2021/07/01 07:49:19;;;;;;;;;17.00;17.00;;;;;29.84;57.69;100927.59;4957133;28;9599;-79
2021/07/01 07:52:16;;;;;;;;;18.80;18.80;;;;;30.01;58.53;100939.66;4938356;28;8841;-80
2021/07/01 07:55:16;;;;;;;;;15.60;15.60;;;;;29.66;57.89;100932.28;4956934;28;8938;-77
2021/07/01 07:58:13;;;;;;;;;17.80;17.80;;;;;29.67;58.41;100919.63;4933065;28;9594;-78
2021/07/01 08:01:10;;;;;;;;;17.40;17.40;;;;;29.45;58.59;100923.16;4957124;28;8944;-77
2021/07/01 08:04:07;;;;;;;;;17.60;17.60;;;;;30.07;56.35;100919.91;4957415;28;9682;-79
2021/07/01 08:07:04;;;;;;;;;19.20;19.20;;;;;30.53;57.23;100909.72;4945412;28;8852;-80
2021/07/01 08:10:02;;;;;;;;;21.40;21.40;;;;;30.70;57.12;100913.19;4959052;28;8860;-78
2021/07/01 08:13:07;;;;;;;;;22.40;22.40;;;;;31.29;57.43;100914.22;4943722;28;8852;-78
2021/07/01 08:16:05;;;;;;;;;19.80;19.80;;;;;31.38;56.09;100922.81;4926328;28;8934;-78
2021/07/01 08:19:00;;;;;;;;;21.20;21.20;;;;;31.59;57.01;100921.13;4940555;28;9694;-77
2021/07/01 08:21:56;;;;;;;;;21.00;21.00;;;;;31.50;56.50;100918.25;4937522;29;8869;-78
2021/07/01 08:24:52;;;;;;;;;22.60;22.40;;;;;31.49;56.80;100903.16;4929263;29;8857;-80
2021/07/01 08:27:50;;;;;;;;;20.40;20.40;;;;;31.07;59.01;100902.81;4936624;29;8845;-80
2021/07/01 08:30:46;;;;;;;;;24.00;24.00;;;;;31.84;57.44;100922.22;4942607;28;8845;-84
2021/07/01 08:33:45;;;;;;;;;21.00;21.00;;;;;31.70;57.06;100921.50;4956754;28;8864;-80
2021/07/01 08:36:44;;;;;;;;;22.00;22.00;;;;;31.83;56.25;100920.63;4921602;29;8842;-80
2021/07/01 08:39:41;;;;;;;;;25.80;25.40;;;;;32.19;55.69;100922.72;4930838;29;9600;-81
2021/07/01 08:42:38;;;;;;;;;20.80;20.80;;;;;31.69;56.87;100925.63;4925408;29;8839;-79
2021/07/01 08:46:00;;;;;;;;;21.80;21.80;;;;;32.01;56.10;100929.22;4937592;29;8838;-78
2021/07/01 08:49:00;;;;;;;;;24.00;22.80;;;;;32.24;54.91;100931.47;4918624;29;8944;-81
2021/07/01 08:52:04;;;;;;;;;19.60;19.60;;;;;32.41;53.98;100934.06;4921198;29;8856;-89
2021/07/01 08:55:05;;;;;;;;;17.00;17.00;;;;;32.09;51.51;100936.22;4905747;29;8907;-79
2021/07/01 08:58:01;;;;;;;;;16.40;16.40;;;;;32.24;51.11;100936.41;4920229;29;8854;-82
2021/07/01 09:01:00;;;;;;;;;20.40;20.40;;;;;32.45;51.77;100926.91;4955346;28;8961;-81
2021/07/01 09:03:58;;;;;;;;;17.80;17.80;;;;;31.86;53.79;100917.59;4958977;28;8870;-83
2021/07/01 09:07:04;;;;;;;;;17.80;17.80;;;;;31.55;53.34;100923.34;4926138;29;8858;-77
2021/07/01 09:10:06;;;;;;;;;15.60;15.60;;;;;32.15;51.30;100930.69;4906905;29;8897;-78
2021/07/01 09:13:08;;;;;;;;;19.00;19.00;;;;;32.42;52.11;100922.13;4925764;29;8854;-81
2021/07/01 09:16:05;;;;;;;;;10.40;10.40;;;;;32.79;51.89;100916.38;4934446;28;8828;-80
2021/07/01 09:19:01;;;;;;;;;16.60;16.60;;;;;32.98;50.88;100917.97;4937086;29;8917;-79
2021/07/01 09:22:00;;;;;;;;;16.40;16.40;;;;;33.07;50.37;100911.41;4923394;29;8841;-80
2021/07/01 09:24:57;;;;;;;;;16.80;16.80;;;;;33.11;48.44;100912.03;4927777;29;8881;-84
2021/07/01 09:27:48;;;;;;;;;14.60;14.60;;;;;33.51;47.08;100910.94;4926854;29;8869;-82
2021/07/01 09:30:43;;;;;;;;;12.00;12.00;;;;;32.99;45.56;100910.97;4944187;28;8872;-80
2021/07/01 09:33:39;;;;;;;;;12.80;12.60;;;;;33.43;46.04;100904.75;4957444;28;8854;-80
2021/07/01 09:36:35;;;;;;;;;12.60;12.00;;;;;33.68;45.12;100918.66;4955821;28;8867;-81
2021/07/01 09:39:33;;;;;;;;;10.60;10.60;;;;;33.58;44.72;100901.97;4947766;28;8939;-80
2021/07/01 09:42:33;;;;;;;;;14.40;14.00;;;;;33.79;43.51;100903.78;4904901;29;8865;-80
2021/07/01 09:45:32;;;;;;;;;13.40;12.60;;;;;32.67;44.91;100895.25;4928941;29;8846;-83
2021/07/01 09:48:32;;;;;;;;;13.20;13.20;;;;;33.02;46.96;100901.38;4925751;29;8858;-83
2021/07/01 09:51:29;;;;;;;;;13.20;13.20;;;;;32.94;47.44;100894.41;4931646;29;8854;-83
2021/07/01 09:54:25;;;;;;;;;12.60;12.60;;;;;32.75;47.78;100896.50;4936192;29;8917;-80
2021/07/01 09:57:28;;;;;;;;;13.80;13.80;;;;;32.31;50.26;100896.03;4935619;29;8886;-84
2021/07/01 10:00:28;;;;;;;;;11.80;11.80;;;;;32.00;48.63;100887.59;4922393;29;9585;-79
2021/07/01 10:03:25;;;;;;;;;11.00;11.00;;;;;31.46;50.27;100878.41;4935272;29;8862;-80
2021/07/01 10:06:23;;;;;;;;;11.20;11.20;;;;;32.39;48.16;100879.38;4911278;29;8860;-83
2021/07/01 10:09:29;;;;;;;;;12.20;12.20;;;;;32.86;46.23;100882.50;4938509;29;8846;-79
2021/07/01 10:12:29;;;;;;;;;12.00;12.00;;;;;32.68;47.43;100871.06;4914642;29;8851;-79
2021/07/01 10:15:28;;;;;;;;;11.00;10.00;;;;;32.92;46.02;100877.72;4935617;29;8843;-80
2021/07/01 10:18:25;;;;;;;;;11.80;11.80;;;;;33.19;44.25;100876.00;4931966;29;8956;-80
2021/07/01 10:21:21;;;;;;;;;12.40;12.40;;;;;32.83;47.65;100865.47;4930076;29;8862;-79
2021/07/01 10:24:19;;;;;;;;;9.80;9.80;;;;;32.12;48.41;100865.81;4931194;29;8853;-83
2021/07/01 10:27:47;;;;;;;;;12.60;12.60;;;;;33.15;47.06;100864.75;4903883;29;8857;-78
2021/07/01 10:31:01;;;;;;;;;10.00;10.00;;;;;33.32;46.18;100875.81;4902676;29;8978;-79
2021/07/01 10:33:58;;;;;;;;;9.00;9.00;;;;;33.52;45.86;100872.41;4915780;29;8869;-82
2021/07/01 10:37:19;;;;;;;;;9.40;9.40;;;;;33.04;45.63;100872.25;4903179;29;8860;-82
2021/07/01 10:40:20;;;;;;;;;10.20;10.20;;;;;32.79;46.49;100870.56;4916619;29;8864;-83
2021/07/01 10:43:21;;;;;;;;;9.20;9.20;;;;;32.98;45.16;100874.22;4933288;29;8858;-82
2021/07/01 10:46:16;;;;;;;;;6.80;6.80;;;;;32.70;45.15;100871.38;4925612;29;8849;-80
2021/07/01 10:49:16;;;;;;;;;9.00;9.00;;;;;32.64;45.84;100865.50;4937492;29;8837;-81
2021/07/01 10:52:12;;;;;;;;;11.60;10.40;;;;;33.08;43.99;100867.16;4926896;29;8853;-77
2021/07/01 10:55:09;;;;;;;;;9.00;9.00;;;;;32.70;43.48;100865.66;4924914;29;8898;-81
2021/07/01 10:58:06;;;;;;;;;8.60;8.60;;;;;33.01;43.08;100864.63;4932777;29;8872;-78
2021/07/01 11:01:03;;;;;;;;;7.60;7.60;;;;;32.96;42.78;100871.00;4939661;29;8851;-77
2021/07/01 11:04:14;;;;;;;;;11.60;11.60;;;;;32.96;44.00;100865.28;4934373;29;8876;-77
2021/07/01 11:07:09;;;;;;;;;7.40;7.40;;;;;33.31;42.32;100848.44;4930516;29;8860;-77
2021/07/01 11:10:05;;;;;;;;;8.60;8.60;;;;;33.50;42.05;100855.66;4938116;29;8882;-83
2021/07/01 11:13:09;;;;;;;;;8.00;8.00;;;;;33.74;41.38;100855.72;4951818;29;8855;-77
2021/07/01 11:16:09;;;;;;;;;8.00;8.00;;;;;33.39;40.62;100838.22;4930183;29;8844;-83
2021/07/01 11:19:07;;;;;;;;;8.40;8.40;;;;;33.88;39.98;100829.13;4949875;28;8883;-79
2021/07/01 11:22:04;;;;;;;;;8.20;8.20;;;;;34.19;39.77;100830.81;4903200;29;8853;-78
2021/07/01 11:25:00;;;;;;;;;8.00;8.00;;;;;34.29;39.14;100826.59;4923321;29;8863;-78
2021/07/01 11:28:26;;;;;;;;;8.60;8.60;;;;;34.69;38.89;100831.78;4922607;29;8851;-77
2021/07/01 11:31:40;;;;;;;;;8.00;8.00;;;;;34.31;39.33;100846.97;4938114;29;8873;-78
2021/07/01 11:34:41;;;;;;;;;11.20;10.00;;;;;34.60;39.16;100829.03;4937805;29;8836;-78
2021/07/01 11:37:39;;;;;;;;;7.40;7.40;;;;;34.74;39.29;100825.34;4918545;29;8843;-76
2021/07/01 11:40:35;;;;;;;;;9.80;9.80;;;;;34.71;39.07;100817.72;4950545;29;8849;-81
2021/07/01 11:43:39;;;;;;;;;5.80;5.80;;;;;34.56;39.20;100811.19;4937022;29;8881;-79
2021/07/01 11:46:41;;;;;;;;;6.00;6.00;;;;;34.69;38.93;100802.28;4915481;29;8951;-76
2021/07/01 11:49:39;;;;;;;;;8.80;8.80;;;;;35.06;38.34;100799.78;4935808;29;8874;-86
2021/07/01 11:52:36;;;;;;;;;7.80;7.80;;;;;34.54;38.58;100794.47;4923705;29;8847;-78
2021/07/01 11:55:32;;;;;;;;;9.60;9.60;;;;;34.81;39.42;100793.34;4934295;29;8861;-76
2021/07/01 11:58:31;;;;;;;;;8.60;8.60;;;;;35.03;40.21;100787.19;4951803;28;8997;-77
2021/07/01 12:01:27;;;;;;;;;6.00;6.00;;;;;33.86;40.23;100793.63;4951020;29;8846;-85
2021/07/01 12:04:36;;;;;;;;;10.00;10.00;;;;;33.51;41.87;100797.09;4938335;29;8862;-79
2021/07/01 12:07:34;;;;;;;;;7.20;7.20;;;;;33.39;42.54;100792.38;4925655;29;8858;-80
2021/07/01 12:10:30;;;;;;;;;7.00;7.00;;;;;33.40;39.69;100789.00;4937902;29;8890;-78
2021/07/01 12:13:32;;;;;;;;;8.60;7.20;;;;;34.41;40.06;100784.56;4924739;29;8849;-77
2021/07/01 12:16:39;;;;;;;;;6.40;6.40;;;;;34.47;39.81;100788.31;4952347;28;8896;-78
2021/07/01 12:19:47;;;;;;;;;7.80;7.80;;;;;34.26;39.68;100781.63;4961542;28;8973;-76
2021/07/01 12:22:50;;;;;;;;;7.20;7.20;;;;;34.20;40.26;100763.53;4937302;29;8908;-76
2021/07/01 12:25:50;;;;;;;;;4.60;3.40;;;;;34.58;39.53;100762.66;4926453;29;8908;-77
2021/07/01 12:28:46;;;;;;;;;6.20;6.20;;;;;34.78;37.68;100759.88;4925820;29;8873;-80
2021/07/01 12:31:43;;;;;;;;;4.00;4.00;;;;;35.07;37.00;100773.41;4939498;29;8880;-81
2021/07/01 12:34:19;;;;;;;;;3.80;3.80;;;;;35.50;36.27;100778.72;4921510;29;8853;-77
2021/07/01 12:37:14;;;;;;;;;3.60;3.60;;;;;34.22;36.73;100778.19;4930224;29;8865;-78
2021/07/01 12:40:28;;;;;;;;;4.20;4.20;;;;;34.65;38.63;100775.81;4923892;29;8881;-77
2021/07/01 12:43:51;;;;;;;;;5.00;5.00;;;;;35.02;37.44;100773.31;4937011;29;8860;-78
2021/07/01 12:46:47;;;;;;;;;6.00;6.00;;;;;34.25;38.27;100766.50;4936567;29;8876;-75
2021/07/01 12:49:44;;;;;;;;;8.40;8.40;;;;;35.18;38.33;100764.16;4939338;28;8920;-78
2021/07/01 12:52:42;;;;;;;;;6.20;6.20;;;;;35.68;37.90;100766.16;4942565;28;8879;-77
2021/07/01 12:55:38;;;;;;;;;6.00;6.00;;;;;35.27;36.77;100760.34;4955745;28;8971;-77
2021/07/01 12:58:33;;;;;;;;;5.80;5.80;;;;;35.81;36.83;100749.28;4955063;28;8828;-76
2021/07/01 13:01:29;;;;;;;;;6.60;6.60;;;;;35.29;37.29;100749.94;4929669;29;8857;-79
2021/07/01 13:04:11;;;;;;;;;4.60;4.60;;;;;35.44;36.01;100758.53;4922871;29;8963;-76
2021/07/01 13:06:42;;;;;;;;;5.00;5.00;;;;;34.52;36.52;100765.44;4920290;29;8899;-76
2021/07/01 13:09:10;;;;;;;;;6.00;6.00;;;;;34.29;37.67;100758.50;4920920;29;8906;-77
2021/07/01 13:11:41;;;;;;;;;4.00;4.00;;;;;33.71;39.48;100773.50;4937255;29;8888;-77
2021/07/01 13:14:40;;;;;;;;;7.40;7.40;;;;;33.69;38.49;100764.59;4937117;29;8854;-77
2021/07/01 13:17:18;;;;;;;;;5.80;5.80;;;;;32.89;39.74;100763.31;4945565;29;8839;-79
2021/07/01 13:19:55;;;;;;;;;4.80;4.80;;;;;32.76;41.67;100766.38;4951818;28;8881;-76
2021/07/01 13:22:51;;;;;;;;;8.40;7.40;;;;;32.75;42.19;100767.66;4948528;28;8887;-76
2021/07/01 13:25:46;;;;;;;;;9.80;9.80;;;;;32.64;43.23;100770.22;4911406;29;8849;-78
2021/07/01 13:28:14;;;;;;;;;7.60;7.60;;;;;32.05;44.07;100778.25;4940722;28;8874;-77
2021/07/01 13:30:42;;;;;;;;;5.80;5.80;;;;;32.20;45.02;100772.69;4955984;28;8878;-77
2021/07/01 13:33:12;;;;;;;;;8.00;8.00;;;;;32.21;45.13;100777.94;4951839;29;8985;-76
2021/07/01 13:35:48;;;;;;;;;7.00;7.00;;;;;31.72;46.42;100769.50;4920021;29;9632;-77
2021/07/01 13:38:44;;;;;;;;;7.40;7.40;;;;;31.63;47.79;100775.22;4940407;28;8858;-79
2021/07/01 13:41:13;;;;;;;;;7.60;7.60;;;;;31.94;47.00;100764.44;4920422;29;8880;-78